createdAt,value
2017-12-24T00:00:21.804Z,55.90
2017-12-24T00:02:51.565Z,38.13
2017-12-24T00:05:21.088Z,50.60
2017-12-24T00:07:50.699Z,49.43
2017-12-24T00:10:20.175Z,47.03
2017-12-24T00:12:49.704Z,50.53
2017-12-24T00:15:19.225Z,59.00
2017-12-24T00:17:48.912Z,41.60
2017-12-24T00:20:18.506Z,50.63
2017-12-24T00:22:47.955Z,43.77
2017-12-24T00:25:17.419Z,50.37
2017-12-24T00:27:46.933Z,39.13
2017-12-24T00:30:16.895Z,46.80
2017-12-24T00:32:48.606Z,44.40
2017-12-24T00:35:18.083Z,52.87
2017-12-24T00:37:47.512Z,37.53
2017-12-24T00:40:17.051Z,45.57
2017-12-24T00:42:46.732Z,42.70
2017-12-24T00:45:16.342Z,48.23
2017-12-24T00:47:45.942Z,43.87
2017-12-24T00:50:16.251Z,47.17
2017-12-24T00:52:45.728Z,55.80
2017-12-24T00:55:15.872Z,52.80
2017-12-24T00:57:46.126Z,49.27
2017-12-24T01:00:16.911Z,44.73
2017-12-24T01:02:46.464Z,39.43
2017-12-24T01:05:16.068Z,37.23
2017-12-24T01:07:45.929Z,43.17
2017-12-24T01:10:15.475Z,49.33
2017-12-24T01:12:44.967Z,56.57
2017-12-24T01:15:14.616Z,38.13
2017-12-24T01:17:44.094Z,54.33
2017-12-24T01:20:13.622Z,38.97
2017-12-24T01:22:43.099Z,49.03
2017-12-24T01:25:12.768Z,51.10
2017-12-24T01:27:42.242Z,47.97
2017-12-24T01:30:11.971Z,41.03
2017-12-24T01:32:42.170Z,43.20
2017-12-24T01:35:11.764Z,50.20
2017-12-24T01:37:42.182Z,49.67
2017-12-24T01:40:11.651Z,56.57
2017-12-24T01:42:41.315Z,42.30
2017-12-24T01:45:11.540Z,46.63
2017-12-24T01:47:49.887Z,45.97
2017-12-24T01:50:19.532Z,43.27
2017-12-24T01:52:49.610Z,75.77
2017-12-24T01:55:19.135Z,42.97
2017-12-24T01:57:48.667Z,53.53
2017-12-24T02:00:18.277Z,50.23
2017-12-24T02:02:47.706Z,38.93
2017-12-24T02:05:17.415Z,42.10
2017-12-24T02:07:47.199Z,43.13
2017-12-24T02:10:16.651Z,46.40
2017-12-24T02:12:46.254Z,49.47
2017-12-24T02:15:16.018Z,49.80
2017-12-24T02:17:45.838Z,46.10
2017-12-24T02:20:16.130Z,58.17
2017-12-24T02:22:45.738Z,56.43
2017-12-24T02:25:15.174Z,54.20
2017-12-24T02:27:44.623Z,56.83
2017-12-24T02:30:14.173Z,56.07
2017-12-24T02:32:43.643Z,55.13
2017-12-24T02:35:13.307Z,46.50
2017-12-24T02:37:42.820Z,45.47
2017-12-24T02:40:12.391Z,46.23
2017-12-24T02:42:41.965Z,35.07
2017-12-24T02:45:11.670Z,52.13
2017-12-24T02:47:41.321Z,47.33
2017-12-24T02:50:11.103Z,55.33
2017-12-24T02:52:41.817Z,37.47
2017-12-24T02:55:11.458Z,48.00
2017-12-24T02:57:40.942Z,44.67
2017-12-24T03:00:10.740Z,54.67
2017-12-24T03:02:41.139Z,41.20
2017-12-24T03:05:10.718Z,39.23
2017-12-24T03:07:40.171Z,35.03
2017-12-24T03:10:09.626Z,42.47
2017-12-24T03:12:39.071Z,46.23
2017-12-24T03:15:08.958Z,33.10
2017-12-24T03:17:38.397Z,46.63
2017-12-24T03:20:07.823Z,41.37
2017-12-24T03:22:37.243Z,32.33
2017-12-24T03:25:07.669Z,38.53
2017-12-24T03:27:37.183Z,36.67
2017-12-24T03:30:06.618Z,26.67
2017-12-24T03:32:37.026Z,37.93
2017-12-24T03:35:06.491Z,35.57
2017-12-24T03:37:35.956Z,31.63
2017-12-24T03:40:06.147Z,27.73
2017-12-24T03:42:36.590Z,31.77
2017-12-24T03:45:08.185Z,39.57
2017-12-24T03:47:37.751Z,31.20
2017-12-24T03:50:07.192Z,32.80
2017-12-24T03:52:36.630Z,32.23
2017-12-24T03:55:06.128Z,32.67
2017-12-24T03:57:35.676Z,26.83
2017-12-24T04:00:05.955Z,26.73
2017-12-24T04:02:35.438Z,30.33
2017-12-24T04:05:04.879Z,32.83
2017-12-24T04:07:36.390Z,40.77
2017-12-24T04:10:05.855Z,32.60
2017-12-24T04:12:36.739Z,26.30
2017-12-24T04:15:06.212Z,22.40
2017-12-24T04:17:35.875Z,44.00
2017-12-24T04:20:05.395Z,25.07
2017-12-24T04:22:34.853Z,47.37
2017-12-24T04:25:04.305Z,25.13
2017-12-24T04:27:33.762Z,47.60
2017-12-24T04:30:03.355Z,35.00
2017-12-24T04:32:32.801Z,35.20
2017-12-24T04:35:02.274Z,39.97
2017-12-24T04:37:31.870Z,33.13
2017-12-24T04:40:02.203Z,36.93
2017-12-24T04:42:32.723Z,34.60
2017-12-24T04:45:02.281Z,33.20
2017-12-24T04:47:32.233Z,37.40
2017-12-24T04:50:01.701Z,38.80
2017-12-24T04:52:32.841Z,48.70
2017-12-24T04:55:02.435Z,36.77
2017-12-24T04:57:31.872Z,46.30
2017-12-24T05:00:01.353Z,43.97
2017-12-24T05:02:32.335Z,36.07
2017-12-24T05:05:01.835Z,45.13
2017-12-24T05:07:31.306Z,40.10
2017-12-24T05:10:01.368Z,41.77
2017-12-24T05:12:30.817Z,41.43
2017-12-24T05:15:01.057Z,26.47
2017-12-24T05:17:30.535Z,31.23
2017-12-24T05:20:00.148Z,45.00
2017-12-24T05:22:29.696Z,50.80
2017-12-24T05:24:59.404Z,45.83
2017-12-24T05:27:29.095Z,54.23
2017-12-24T05:29:58.566Z,42.30
2017-12-24T05:32:28.060Z,51.13
2017-12-24T05:34:57.587Z,46.27
2017-12-24T05:37:27.178Z,51.20
2017-12-24T05:39:56.680Z,39.07
2017-12-24T05:42:26.198Z,43.40
2017-12-24T05:44:55.803Z,41.20
2017-12-24T05:47:25.518Z,39.53
2017-12-24T05:49:55.726Z,46.77
2017-12-24T05:52:25.820Z,41.37
2017-12-24T05:54:55.376Z,44.37
2017-12-24T05:57:24.878Z,48.53
2017-12-24T05:59:54.627Z,43.43
2017-12-24T06:02:24.213Z,54.93
2017-12-24T06:04:54.797Z,47.83
2017-12-24T06:07:24.333Z,49.07
2017-12-24T06:09:54.832Z,49.03
2017-12-24T06:12:24.290Z,41.23
2017-12-24T06:14:54.012Z,50.73
2017-12-24T06:17:23.470Z,36.03
2017-12-24T06:19:53.284Z,31.33
2017-12-24T06:22:22.993Z,44.90
2017-12-24T06:24:52.479Z,38.60
2017-12-24T06:27:22.043Z,43.70
2017-12-24T06:29:52.224Z,38.13
2017-12-24T06:32:21.909Z,40.03
2017-12-24T06:34:53.654Z,40.67
2017-12-24T06:37:23.973Z,46.17
2017-12-24T06:39:53.467Z,43.17
2017-12-24T06:42:22.937Z,43.60
2017-12-24T06:44:52.606Z,47.40
2017-12-24T06:47:22.256Z,49.03
2017-12-24T06:49:51.948Z,33.33
2017-12-24T06:52:21.635Z,35.20
2017-12-24T06:54:51.110Z,26.20
2017-12-24T06:57:20.698Z,23.33
2017-12-24T06:59:50.238Z,24.87
2017-12-24T07:02:19.875Z,30.93
2017-12-24T07:04:49.374Z,27.07
2017-12-24T07:07:18.992Z,21.30
2017-12-24T07:09:48.632Z,16.07
2017-12-24T07:12:18.133Z,16.57
2017-12-24T07:14:49.199Z,9.93
2017-12-24T07:17:18.654Z,12.87
2017-12-24T07:19:48.347Z,16.50
2017-12-24T07:22:17.832Z,9.27
2017-12-24T07:24:47.506Z,9.60
2017-12-24T07:27:17.758Z,6.47
2017-12-24T07:29:47.467Z,14.50
2017-12-24T07:32:17.019Z,8.57
2017-12-24T07:34:46.726Z,10.37
2017-12-24T07:37:17.018Z,5.60
2017-12-24T07:39:46.781Z,6.03
2017-12-24T07:42:17.760Z,8.03
2017-12-24T07:44:47.221Z,7.00
2017-12-24T07:47:17.730Z,12.77
2017-12-24T07:49:47.507Z,8.63
2017-12-24T07:52:17.054Z,8.63
2017-12-24T07:54:47.387Z,12.87
2017-12-24T07:57:18.660Z,7.60
2017-12-24T07:59:48.773Z,8.90
2017-12-24T08:02:18.792Z,9.07
2017-12-24T08:04:49.118Z,10.57
2017-12-24T08:07:18.570Z,16.27
2017-12-24T08:09:48.023Z,13.43
2017-12-24T08:12:17.523Z,9.90
2017-12-24T08:14:46.975Z,11.20
2017-12-24T08:17:17.287Z,14.13
2017-12-24T08:19:46.742Z,15.97
2017-12-24T08:22:16.304Z,16.77
2017-12-24T08:24:45.771Z,17.30
2017-12-24T08:27:15.235Z,24.30
2017-12-24T08:29:45.594Z,25.93
2017-12-24T08:32:15.407Z,22.77
2017-12-24T08:34:45.039Z,20.50
2017-12-24T08:37:14.523Z,24.07
2017-12-24T08:39:44.022Z,27.63
2017-12-24T08:42:13.487Z,28.60
2017-12-24T08:44:43.193Z,28.43
2017-12-24T08:47:13.623Z,24.80
2017-12-24T08:49:43.908Z,24.73
2017-12-24T08:52:13.655Z,31.50
2017-12-24T08:54:43.658Z,25.27
2017-12-24T08:57:13.543Z,28.63
2017-12-24T08:59:43.420Z,29.60
2017-12-24T09:02:13.099Z,31.87
2017-12-24T09:04:42.659Z,22.97
2017-12-24T09:07:12.301Z,30.13
2017-12-24T09:09:41.819Z,31.67
2017-12-24T09:12:11.349Z,39.27
2017-12-24T09:14:42.098Z,45.33
2017-12-24T09:17:12.580Z,44.37
2017-12-24T09:19:42.568Z,55.53
2017-12-24T09:22:12.433Z,36.20
2017-12-24T09:24:42.957Z,28.60
2017-12-24T09:27:12.537Z,30.43
2017-12-24T09:29:42.865Z,25.60
2017-12-24T09:32:12.860Z,28.87
2017-12-24T09:34:42.409Z,22.30
2017-12-24T09:37:12.397Z,23.13
2017-12-24T09:39:42.373Z,28.50
2017-12-24T09:42:12.045Z,21.93
2017-12-24T09:44:42.312Z,22.07
2017-12-24T09:47:19.349Z,22.77
2017-12-24T09:49:56.564Z,21.07
2017-12-24T09:52:26.674Z,21.13
2017-12-24T09:54:56.427Z,27.23
2017-12-24T09:57:26.060Z,16.57
2017-12-24T09:59:56.046Z,24.47
2017-12-24T10:02:26.064Z,27.80
2017-12-24T10:04:55.701Z,30.53
2017-12-24T10:07:25.239Z,33.67
2017-12-24T10:09:54.762Z,31.60
2017-12-24T10:12:24.365Z,27.13
2017-12-24T10:14:53.868Z,17.60
2017-12-24T10:17:23.446Z,26.07
2017-12-24T10:19:52.929Z,28.80
2017-12-24T10:22:23.339Z,24.87
2017-12-24T10:24:52.844Z,18.83
2017-12-24T10:27:22.390Z,20.07
2017-12-24T10:29:52.064Z,18.90
2017-12-24T10:32:21.757Z,12.57
2017-12-24T10:34:51.406Z,10.50
2017-12-24T10:37:21.949Z,12.80
2017-12-24T10:39:51.437Z,6.40
2017-12-24T10:42:23.794Z,12.83
2017-12-24T10:44:53.540Z,12.90
2017-12-24T10:47:23.211Z,15.47
2017-12-24T10:49:52.770Z,9.80
2017-12-24T10:52:22.583Z,8.40
2017-12-24T10:54:52.259Z,9.33
2017-12-24T10:57:21.858Z,8.93
2017-12-24T10:59:52.249Z,17.50
2017-12-24T11:02:22.179Z,11.40
2017-12-24T11:04:52.145Z,9.23
2017-12-24T11:07:21.866Z,8.70
2017-12-24T11:09:51.681Z,9.50
2017-12-24T11:12:21.206Z,17.20
2017-12-24T11:14:50.728Z,9.17
2017-12-24T11:17:20.386Z,10.17
2017-12-24T11:19:50.076Z,10.60
2017-12-24T11:22:20.532Z,10.73
2017-12-24T11:24:50.013Z,8.83
2017-12-24T11:27:19.624Z,4.53
2017-12-24T11:29:49.598Z,9.40
2017-12-24T11:32:19.749Z,4.63
2017-12-24T11:34:49.480Z,4.30
2017-12-24T11:37:19.440Z,4.57
2017-12-24T11:39:48.990Z,6.03
2017-12-24T11:42:18.635Z,5.60
2017-12-24T11:44:48.447Z,7.83
2017-12-24T11:47:18.093Z,8.30
2017-12-24T11:49:48.756Z,6.23
2017-12-24T11:52:18.244Z,7.23
2017-12-24T11:54:47.923Z,6.90
2017-12-24T11:57:18.962Z,3.10
2017-12-24T11:59:48.578Z,3.20
2017-12-24T12:02:20.404Z,3.77
2017-12-24T12:04:49.968Z,9.40
2017-12-24T12:07:20.348Z,10.93
2017-12-24T12:09:50.311Z,14.50
2017-12-24T12:12:20.099Z,17.50
2017-12-24T12:14:50.353Z,17.67
2017-12-24T12:17:19.822Z,24.37
2017-12-24T12:19:49.303Z,21.63
2017-12-24T12:22:18.946Z,21.10
2017-12-24T12:24:49.281Z,34.93
2017-12-24T12:27:19.700Z,34.50
2017-12-24T12:29:49.379Z,20.50
2017-12-24T12:32:20.399Z,38.33
2017-12-24T12:34:51.140Z,34.20
2017-12-24T12:37:20.747Z,32.30
2017-12-24T12:39:50.740Z,31.63
2017-12-24T12:42:20.777Z,29.00
2017-12-24T12:44:50.706Z,53.27
2017-12-24T12:47:20.582Z,43.17
2017-12-24T12:49:50.391Z,41.70
2017-12-24T12:52:20.242Z,50.17
2017-12-24T12:54:50.412Z,36.43
2017-12-24T12:57:20.421Z,46.87
2017-12-24T12:59:49.964Z,40.10
2017-12-24T13:02:20.502Z,48.17
2017-12-24T13:04:51.604Z,47.13
2017-12-24T13:07:22.277Z,35.63
2017-12-24T13:09:53.204Z,49.10
2017-12-24T13:12:23.720Z,42.30
2017-12-24T13:14:53.677Z,45.83
2017-12-24T13:17:24.221Z,33.37
2017-12-24T13:19:54.167Z,46.07
2017-12-24T13:22:23.978Z,34.67
2017-12-24T13:24:53.686Z,34.80
2017-12-24T13:27:23.532Z,44.47
2017-12-24T13:29:53.767Z,37.90
2017-12-24T13:32:24.035Z,33.00
2017-12-24T13:34:54.318Z,42.23
2017-12-24T13:37:25.030Z,41.57
2017-12-24T13:39:54.747Z,55.73
2017-12-24T13:42:24.469Z,34.67
2017-12-24T13:44:54.242Z,46.57
2017-12-24T13:47:24.077Z,38.23
2017-12-24T13:49:53.719Z,51.03
2017-12-24T13:52:24.275Z,44.00
2017-12-24T13:54:53.953Z,46.27
2017-12-24T13:57:24.375Z,47.80
2017-12-24T13:59:54.646Z,44.53
2017-12-24T14:02:24.147Z,51.67
2017-12-24T14:04:54.006Z,41.50
2017-12-24T14:07:23.827Z,42.37
2017-12-24T14:09:53.462Z,39.17
2017-12-24T14:12:23.193Z,34.17
2017-12-24T14:14:52.655Z,36.77
2017-12-24T14:17:23.003Z,39.50
2017-12-24T14:19:59.480Z,46.20
2017-12-24T14:22:38.551Z,39.37
2017-12-24T14:25:09.077Z,23.43
2017-12-24T14:27:38.623Z,40.00
2017-12-24T14:30:08.119Z,34.67
2017-12-24T14:32:39.252Z,39.07
2017-12-24T14:35:09.849Z,37.90
2017-12-24T14:37:39.626Z,55.57
2017-12-24T14:40:09.659Z,35.47
2017-12-24T14:42:39.489Z,30.63
2017-12-24T14:45:09.141Z,34.67
2017-12-24T14:47:38.872Z,25.27
2017-12-24T14:50:10.118Z,25.80
2017-12-24T14:52:39.892Z,40.63
2017-12-24T14:55:09.681Z,32.70
2017-12-24T14:57:39.859Z,32.60
2017-12-24T15:00:10.002Z,39.03
2017-12-24T15:02:39.465Z,34.87
2017-12-24T15:05:08.989Z,32.47
2017-12-24T15:07:38.482Z,36.27
2017-12-24T15:10:09.795Z,37.07
2017-12-24T15:12:39.947Z,39.80
2017-12-24T15:15:09.648Z,33.60
2017-12-24T15:17:39.382Z,39.67
2017-12-24T15:20:09.043Z,29.73
2017-12-24T15:22:38.667Z,38.90
2017-12-24T15:25:09.443Z,39.17
2017-12-24T15:27:40.013Z,28.30
2017-12-24T15:30:09.658Z,24.97
2017-12-24T15:32:39.133Z,29.37
2017-12-24T15:35:08.821Z,34.90
2017-12-24T15:37:39.959Z,38.27
2017-12-24T15:40:09.706Z,43.73
2017-12-24T15:42:40.396Z,37.07
2017-12-24T15:45:10.059Z,29.13
2017-12-24T15:47:39.843Z,36.00
2017-12-24T15:50:09.850Z,42.37
2017-12-24T15:52:40.961Z,42.70
2017-12-24T15:55:10.440Z,47.70
2017-12-24T15:57:40.830Z,43.57
2017-12-24T16:00:10.953Z,35.13
2017-12-24T16:02:40.467Z,32.70
2017-12-24T16:05:10.035Z,30.00
2017-12-24T16:07:39.678Z,37.73
2017-12-24T16:10:09.367Z,31.77
2017-12-24T16:12:38.883Z,30.50
2017-12-24T16:15:08.646Z,28.47
2017-12-24T16:17:38.219Z,28.93
2017-12-24T16:20:08.664Z,29.87
2017-12-24T16:22:38.103Z,27.33
2017-12-24T16:25:07.816Z,31.30
2017-12-24T16:27:37.424Z,29.70
2017-12-24T16:30:07.040Z,38.50
2017-12-24T16:32:36.736Z,62.10
2017-12-24T16:35:06.420Z,64.83
2017-12-24T16:37:36.241Z,43.77
2017-12-24T16:40:05.729Z,48.73
2017-12-24T16:42:35.318Z,36.60
2017-12-24T16:45:04.975Z,32.23
2017-12-24T16:47:34.633Z,29.63
2017-12-24T16:50:04.392Z,34.07
2017-12-24T16:52:34.246Z,40.43
2017-12-24T16:55:04.084Z,33.97
2017-12-24T16:57:33.797Z,53.20
2017-12-24T17:00:05.052Z,29.23
2017-12-24T17:02:34.709Z,35.53
2017-12-24T17:05:04.764Z,35.93
2017-12-24T17:07:34.753Z,17.97
2017-12-24T17:10:04.375Z,27.07
2017-12-24T17:12:35.313Z,30.87
2017-12-24T17:15:05.767Z,31.20
2017-12-24T17:17:35.611Z,36.80
2017-12-24T17:20:05.306Z,24.77
2017-12-24T17:22:34.751Z,32.10
2017-12-24T17:25:05.021Z,17.83
2017-12-24T17:27:34.670Z,32.97
2017-12-24T17:30:04.351Z,27.07
2017-12-24T17:32:34.081Z,17.00
2017-12-24T17:35:03.957Z,28.73
2017-12-24T17:37:33.635Z,28.00
2017-12-24T17:40:03.206Z,25.13
2017-12-24T17:42:32.722Z,26.17
2017-12-24T17:45:03.866Z,24.53
2017-12-24T17:47:33.344Z,22.83
2017-12-24T17:50:02.983Z,23.13
2017-12-24T17:52:33.985Z,34.97
2017-12-24T17:55:03.654Z,32.67
2017-12-24T17:57:33.240Z,30.50
2017-12-24T18:00:02.756Z,32.13
2017-12-24T18:02:32.229Z,36.70
2017-12-24T18:05:01.737Z,25.40
2017-12-24T18:07:31.182Z,22.60
2017-12-24T18:10:00.691Z,25.67
2017-12-24T18:12:30.451Z,17.00
2017-12-24T18:15:00.026Z,18.27
2017-12-24T18:17:29.948Z,27.43
2017-12-24T18:19:59.448Z,26.50
2017-12-24T18:22:29.095Z,23.00
2017-12-24T18:24:58.749Z,28.40
2017-12-24T18:27:28.199Z,26.07
2017-12-24T18:29:57.756Z,26.17
2017-12-24T18:32:27.423Z,19.90
2017-12-24T18:34:56.874Z,26.23
2017-12-24T18:37:26.509Z,27.70
2017-12-24T18:39:55.957Z,21.63
2017-12-24T18:42:26.340Z,217.50
2017-12-24T18:44:57.576Z,48.03
2017-12-24T18:47:27.041Z,26.90
2017-12-24T18:49:56.744Z,54.03
2017-12-24T18:52:26.396Z,35.13
2017-12-24T18:54:55.955Z,30.43
2017-12-24T18:57:26.003Z,35.03
2017-12-24T18:59:55.718Z,46.30
2017-12-24T19:02:25.289Z,37.00
2017-12-24T19:04:54.972Z,26.57
2017-12-24T19:07:24.675Z,30.70
2017-12-24T19:09:54.194Z,27.00
2017-12-24T19:12:24.332Z,36.77
2017-12-24T19:14:54.441Z,24.27
2017-12-24T19:17:24.220Z,29.60
2017-12-24T19:19:53.866Z,32.93
2017-12-24T19:22:23.457Z,23.63
2017-12-24T19:24:53.919Z,30.27
2017-12-24T19:27:23.601Z,19.50
2017-12-24T19:29:53.242Z,28.20
2017-12-24T19:32:23.093Z,22.43
2017-12-24T19:34:52.626Z,27.80
2017-12-24T19:37:23.158Z,36.20
2017-12-24T19:39:52.800Z,30.63
2017-12-24T19:42:22.884Z,29.50
2017-12-24T19:44:53.124Z,36.47
2017-12-24T19:47:22.619Z,34.70
2017-12-24T19:49:52.168Z,36.50
2017-12-24T19:52:22.007Z,28.20
2017-12-24T19:54:51.502Z,33.53
2017-12-24T19:57:21.388Z,28.53
2017-12-24T19:59:51.392Z,32.87
2017-12-24T20:02:21.301Z,27.80
2017-12-24T20:04:51.050Z,38.67
2017-12-24T20:07:20.711Z,28.70
2017-12-24T20:09:50.191Z,28.60
2017-12-24T20:12:20.451Z,31.53
2017-12-24T20:14:50.228Z,24.10
2017-12-24T20:17:20.592Z,28.30
2017-12-24T20:19:50.053Z,33.63
2017-12-24T20:22:20.279Z,31.83
2017-12-24T20:24:50.023Z,34.13
2017-12-24T20:27:19.803Z,47.13
2017-12-24T20:29:50.146Z,34.13
2017-12-24T20:32:19.707Z,24.73
2017-12-24T20:34:49.343Z,34.37
2017-12-24T20:37:19.609Z,28.63
2017-12-24T20:39:49.070Z,41.53
2017-12-24T20:42:18.756Z,41.17
2017-12-24T20:44:48.993Z,32.53
2017-12-24T20:47:18.463Z,34.10
2017-12-24T20:49:48.004Z,32.73
2017-12-24T20:52:18.407Z,39.87
2017-12-24T20:54:47.876Z,34.17
2017-12-24T20:57:17.595Z,49.53
2017-12-24T20:59:47.270Z,54.10
2017-12-24T21:02:17.632Z,46.43
2017-12-24T21:04:47.519Z,39.77
2017-12-24T21:07:17.709Z,39.17
2017-12-24T21:09:48.610Z,50.90
2017-12-24T21:12:19.256Z,56.40
2017-12-24T21:14:48.989Z,39.77
2017-12-24T21:17:19.552Z,32.60
2017-12-24T21:19:49.310Z,32.77
2017-12-24T21:22:18.888Z,48.97
2017-12-24T21:24:48.657Z,45.33
2017-12-24T21:27:18.602Z,49.93
2017-12-24T21:29:48.354Z,42.63
2017-12-24T21:32:17.977Z,50.17
2017-12-24T21:34:47.811Z,40.10
2017-12-24T21:37:17.546Z,44.70
2017-12-24T21:39:47.769Z,48.50
2017-12-24T21:42:17.306Z,52.30
2017-12-24T21:44:48.527Z,49.03
2017-12-24T21:47:18.075Z,47.87
2017-12-24T21:49:47.678Z,50.07
2017-12-24T21:52:26.538Z,43.37
2017-12-24T21:54:56.847Z,51.77
2017-12-24T21:57:26.597Z,40.10
2017-12-24T21:59:56.084Z,45.43
2017-12-24T22:02:25.702Z,39.67
2017-12-24T22:04:55.184Z,36.27
2017-12-24T22:07:24.986Z,41.90
2017-12-24T22:10:02.807Z,36.80
2017-12-24T22:12:32.869Z,30.70
2017-12-24T22:15:02.576Z,50.77
2017-12-24T22:17:40.861Z,30.60
2017-12-24T22:20:16.995Z,31.00
2017-12-24T22:22:48.336Z,23.83
2017-12-24T22:25:18.024Z,32.20
2017-12-24T22:27:47.712Z,25.40
2017-12-24T22:30:18.170Z,24.77
2017-12-24T22:32:48.043Z,20.40
2017-12-24T22:35:17.745Z,29.27
2017-12-24T22:37:47.388Z,27.70
2017-12-24T22:40:17.914Z,17.17
2017-12-24T22:42:47.767Z,26.73
2017-12-24T22:45:17.470Z,27.97
2017-12-24T22:47:46.950Z,15.90
2017-12-24T22:50:16.447Z,12.00
2017-12-24T22:52:45.996Z,15.10
2017-12-24T22:55:15.740Z,11.63
2017-12-24T22:57:45.494Z,11.07
2017-12-24T23:00:15.564Z,16.90
2017-12-24T23:02:45.088Z,11.50
2017-12-24T23:05:14.718Z,9.40
2017-12-24T23:07:44.471Z,12.00
2017-12-24T23:10:14.006Z,11.77
2017-12-24T23:12:44.520Z,14.53
2017-12-24T23:15:13.975Z,15.73
2017-12-24T23:17:43.507Z,12.87
2017-12-24T23:20:13.066Z,13.40
2017-12-24T23:22:42.580Z,17.00
2017-12-24T23:25:12.284Z,15.30
2017-12-24T23:27:42.220Z,16.77
2017-12-24T23:30:12.525Z,25.00
2017-12-24T23:32:42.151Z,17.33
2017-12-24T23:35:11.655Z,14.83
2017-12-24T23:37:41.306Z,14.60
2017-12-24T23:40:11.751Z,15.27
2017-12-24T23:42:41.250Z,12.40
2017-12-24T23:45:11.081Z,21.93
2017-12-24T23:47:41.351Z,12.20
2017-12-24T23:50:10.838Z,15.60
2017-12-24T23:52:40.572Z,17.43
2017-12-24T23:55:10.086Z,18.27
2017-12-24T23:57:40.374Z,19.37
